sensor_id;sensor_type;location;lat;lon;timestamp;P1;durP1;ratioP1;P2;durP2;ratioP2
17177;SDS011;8704;52.006;4.374;2023-09-18T00:00:05;62.60;;;53.72;;
17177;SDS011;8704;52.006;4.374;2023-09-18T00:02:37;65.13;;;54.20;;
17177;SDS011;8704;52.006;4.374;2023-09-18T00:05:07;58.15;;;49.95;;
17177;SDS011;8704;52.006;4.374;2023-09-18T00:07:36;62.88;;;54.22;;
17177;SDS011;8704;52.006;4.374;2023-09-18T00:10:04;60.75;;;51.88;;
17177;SDS011;8704;52.006;4.374;2023-09-18T00:12:32;57.53;;;51.33;;
17177;SDS011;8704;52.006;4.374;2023-09-18T00:15:01;54.22;;;47.88;;
17177;SDS011;8704;52.006;4.374;2023-09-18T00:17:29;63.10;;;52.28;;
17177;SDS011;8704;52.006;4.374;2023-09-18T00:19:57;63.10;;;54.35;;
17177;SDS011;8704;52.006;4.374;2023-09-18T00:22:26;64.18;;;54.65;;
17177;SDS011;8704;52.006;4.374;2023-09-18T00:24:54;58.35;;;51.95;;
17177;SDS011;8704;52.006;4.374;2023-09-18T00:27:22;60.70;;;54.05;;
17177;SDS011;8704;52.006;4.374;2023-09-18T00:29:51;61.17;;;52.75;;
17177;SDS011;8704;52.006;4.374;2023-09-18T00:32:19;64.93;;;56.75;;
17177;SDS011;8704;52.006;4.374;2023-09-18T00:34:47;60.70;;;54.22;;
17177;SDS011;8704;52.006;4.374;2023-09-18T00:37:15;56.78;;;50.80;;
17177;SDS011;8704;52.006;4.374;2023-09-18T00:39:44;55.38;;;49.28;;
17177;SDS011;8704;52.006;4.374;2023-09-18T00:42:12;53.10;;;47.50;;
17177;SDS011;8704;52.006;4.374;2023-09-18T00:44:42;54.13;;;47.97;;
17177;SDS011;8704;52.006;4.374;2023-09-18T00:47:10;52.35;;;46.38;;
17177;SDS011;8704;52.006;4.374;2023-09-18T00:49:39;47.05;;;42.03;;
17177;SDS011;8704;52.006;4.374;2023-09-18T00:52:08;48.50;;;43.53;;
17177;SDS011;8704;52.006;4.374;2023-09-18T00:54:37;53.25;;;47.47;;
17177;SDS011;8704;52.006;4.374;2023-09-18T00:57:08;49.88;;;44.33;;
17177;SDS011;8704;52.006;4.374;2023-09-18T00:59:38;48.47;;;43.28;;
17177;SDS011;8704;52.006;4.374;2023-09-18T01:02:06;48.05;;;43.10;;
17177;SDS011;8704;52.006;4.374;2023-09-18T01:04:35;49.28;;;44.10;;
17177;SDS011;8704;52.006;4.374;2023-09-18T01:07:04;49.78;;;44.53;;
17177;SDS011;8704;52.006;4.374;2023-09-18T01:09:32;55.85;;;50.00;;
17177;SDS011;8704;52.006;4.374;2023-09-18T01:12:04;50.38;;;45.17;;
17177;SDS011;8704;52.006;4.374;2023-09-18T01:14:37;50.88;;;45.60;;
17177;SDS011;8704;52.006;4.374;2023-09-18T01:17:10;48.90;;;43.90;;
17177;SDS011;8704;52.006;4.374;2023-09-18T01:19:40;48.00;;;43.10;;
17177;SDS011;8704;52.006;4.374;2023-09-18T01:22:12;48.85;;;43.85;;
17177;SDS011;8704;52.006;4.374;2023-09-18T01:24:43;53.95;;;48.05;;
17177;SDS011;8704;52.006;4.374;2023-09-18T01:27:14;49.10;;;44.03;;
17177;SDS011;8704;52.006;4.374;2023-09-18T01:29:44;47.28;;;42.42;;
17177;SDS011;8704;52.006;4.374;2023-09-18T01:32:12;45.35;;;40.33;;
17177;SDS011;8704;52.006;4.374;2023-09-18T01:34:42;46.97;;;42.28;;
17177;SDS011;8704;52.006;4.374;2023-09-18T01:37:14;50.22;;;44.85;;
17177;SDS011;8704;52.006;4.374;2023-09-18T01:39:45;49.38;;;44.25;;
17177;SDS011;8704;52.006;4.374;2023-09-18T01:42:16;50.13;;;44.95;;
17177;SDS011;8704;52.006;4.374;2023-09-18T01:44:44;55.70;;;49.72;;
17177;SDS011;8704;52.006;4.374;2023-09-18T01:47:16;55.03;;;48.88;;
17177;SDS011;8704;52.006;4.374;2023-09-18T01:49:46;51.83;;;46.60;;
17177;SDS011;8704;52.006;4.374;2023-09-18T01:52:14;51.33;;;45.97;;
17177;SDS011;8704;52.006;4.374;2023-09-18T01:54:42;48.67;;;43.67;;
17177;SDS011;8704;52.006;4.374;2023-09-18T01:57:12;51.38;;;46.13;;
17177;SDS011;8704;52.006;4.374;2023-09-18T01:59:40;46.63;;;41.67;;
17177;SDS011;8704;52.006;4.374;2023-09-18T02:02:09;47.80;;;42.92;;
17177;SDS011;8704;52.006;4.374;2023-09-18T02:04:42;52.45;;;46.30;;
17177;SDS011;8704;52.006;4.374;2023-09-18T02:07:31;47.80;;;43.03;;
17177;SDS011;8704;52.006;4.374;2023-09-18T02:10:00;53.30;;;46.15;;
17177;SDS011;8704;52.006;4.374;2023-09-18T02:12:30;50.25;;;45.03;;
17177;SDS011;8704;52.006;4.374;2023-09-18T02:14:59;44.85;;;40.05;;
17177;SDS011;8704;52.006;4.374;2023-09-18T02:17:30;53.95;;;48.30;;
17177;SDS011;8704;52.006;4.374;2023-09-18T02:19:59;45.78;;;41.03;;
17177;SDS011;8704;52.006;4.374;2023-09-18T02:24:59;48.42;;;43.47;;
17177;SDS011;8704;52.006;4.374;2023-09-18T02:27:27;45.95;;;41.33;;
17177;SDS011;8704;52.006;4.374;2023-09-18T02:29:56;42.25;;;37.92;;
17177;SDS011;8704;52.006;4.374;2023-09-18T02:32:24;40.50;;;36.47;;
17177;SDS011;8704;52.006;4.374;2023-09-18T02:34:53;36.63;;;32.92;;
17177;SDS011;8704;52.006;4.374;2023-09-18T02:37:21;34.05;;;30.58;;
17177;SDS011;8704;52.006;4.374;2023-09-18T02:39:50;37.08;;;33.15;;
17177;SDS011;8704;52.006;4.374;2023-09-18T02:42:18;41.13;;;36.85;;
17177;SDS011;8704;52.006;4.374;2023-09-18T02:44:46;41.40;;;37.20;;
17177;SDS011;8704;52.006;4.374;2023-09-18T02:47:16;35.17;;;31.55;;
17177;SDS011;8704;52.006;4.374;2023-09-18T02:49:44;38.88;;;34.83;;
17177;SDS011;8704;52.006;4.374;2023-09-18T02:52:12;37.95;;;34.30;;
17177;SDS011;8704;52.006;4.374;2023-09-18T02:54:40;33.47;;;30.25;;
17177;SDS011;8704;52.006;4.374;2023-09-18T02:57:08;36.90;;;33.30;;
17177;SDS011;8704;52.006;4.374;2023-09-18T02:59:36;35.22;;;31.77;;
17177;SDS011;8704;52.006;4.374;2023-09-18T03:02:05;29.50;;;26.50;;
17177;SDS011;8704;52.006;4.374;2023-09-18T03:04:34;29.73;;;26.88;;
17177;SDS011;8704;52.006;4.374;2023-09-18T03:07:02;32.22;;;29.08;;
17177;SDS011;8704;52.006;4.374;2023-09-18T03:09:31;30.88;;;27.58;;
17177;SDS011;8704;52.006;4.374;2023-09-18T03:11:59;31.08;;;28.00;;
17177;SDS011;8704;52.006;4.374;2023-09-18T03:14:27;31.65;;;28.67;;
17177;SDS011;8704;52.006;4.374;2023-09-18T03:16:55;30.67;;;27.65;;
17177;SDS011;8704;52.006;4.374;2023-09-18T03:19:23;29.30;;;26.25;;
17177;SDS011;8704;52.006;4.374;2023-09-18T03:21:54;36.70;;;33.00;;
17177;SDS011;8704;52.006;4.374;2023-09-18T03:24:22;36.95;;;33.05;;
17177;SDS011;8704;52.006;4.374;2023-09-18T03:26:50;32.72;;;29.00;;
17177;SDS011;8704;52.006;4.374;2023-09-18T03:29:18;38.58;;;34.08;;
17177;SDS011;8704;52.006;4.374;2023-09-18T03:31:47;42.15;;;36.95;;
17177;SDS011;8704;52.006;4.374;2023-09-18T03:34:15;41.15;;;35.75;;
17177;SDS011;8704;52.006;4.374;2023-09-18T03:36:43;43.00;;;37.67;;
17177;SDS011;8704;52.006;4.374;2023-09-18T03:39:12;45.47;;;40.22;;
17177;SDS011;8704;52.006;4.374;2023-09-18T03:41:40;51.88;;;41.10;;
17177;SDS011;8704;52.006;4.374;2023-09-18T03:44:08;44.05;;;39.65;;
17177;SDS011;8704;52.006;4.374;2023-09-18T03:46:37;44.83;;;40.40;;
17177;SDS011;8704;52.006;4.374;2023-09-18T03:49:06;45.00;;;38.78;;
17177;SDS011;8704;52.006;4.374;2023-09-18T03:51:34;43.70;;;39.10;;
17177;SDS011;8704;52.006;4.374;2023-09-18T03:54:02;42.63;;;38.03;;
17177;SDS011;8704;52.006;4.374;2023-09-18T03:56:31;36.25;;;32.65;;
17177;SDS011;8704;52.006;4.374;2023-09-18T03:58:59;39.42;;;32.85;;
17177;SDS011;8704;52.006;4.374;2023-09-18T04:01:28;34.30;;;30.55;;
17177;SDS011;8704;52.006;4.374;2023-09-18T04:03:56;35.22;;;31.45;;
17177;SDS011;8704;52.006;4.374;2023-09-18T04:06:35;31.70;;;28.55;;
17177;SDS011;8704;52.006;4.374;2023-09-18T04:09:04;31.92;;;28.30;;
17177;SDS011;8704;52.006;4.374;2023-09-18T04:11:33;30.20;;;24.92;;
17177;SDS011;8704;52.006;4.374;2023-09-18T04:14:01;27.52;;;24.65;;
17177;SDS011;8704;52.006;4.374;2023-09-18T04:16:30;30.98;;;27.30;;
17177;SDS011;8704;52.006;4.374;2023-09-18T04:19:01;30.10;;;26.20;;
17177;SDS011;8704;52.006;4.374;2023-09-18T04:21:29;28.58;;;25.52;;
17177;SDS011;8704;52.006;4.374;2023-09-18T04:23:58;29.13;;;26.02;;
17177;SDS011;8704;52.006;4.374;2023-09-18T04:26:26;27.50;;;24.70;;
17177;SDS011;8704;52.006;4.374;2023-09-18T04:28:57;32.85;;;27.27;;
17177;SDS011;8704;52.006;4.374;2023-09-18T04:31:26;23.30;;;20.90;;
17177;SDS011;8704;52.006;4.374;2023-09-18T04:33:54;26.15;;;23.33;;
17177;SDS011;8704;52.006;4.374;2023-09-18T04:36:23;21.95;;;19.73;;
17177;SDS011;8704;52.006;4.374;2023-09-18T04:38:51;22.20;;;20.05;;
17177;SDS011;8704;52.006;4.374;2023-09-18T04:41:20;23.95;;;21.17;;
17177;SDS011;8704;52.006;4.374;2023-09-18T04:43:48;25.75;;;22.92;;
17177;SDS011;8704;52.006;4.374;2023-09-18T04:46:18;28.05;;;23.63;;
17177;SDS011;8704;52.006;4.374;2023-09-18T04:48:46;28.23;;;24.20;;
17177;SDS011;8704;52.006;4.374;2023-09-18T04:51:14;24.08;;;21.77;;
17177;SDS011;8704;52.006;4.374;2023-09-18T04:53:42;29.42;;;21.73;;
17177;SDS011;8704;52.006;4.374;2023-09-18T04:56:10;27.77;;;24.65;;
17177;SDS011;8704;52.006;4.374;2023-09-18T04:58:39;27.13;;;23.98;;
17177;SDS011;8704;52.006;4.374;2023-09-18T05:01:07;32.42;;;27.50;;
17177;SDS011;8704;52.006;4.374;2023-09-18T05:03:39;33.45;;;29.95;;
17177;SDS011;8704;52.006;4.374;2023-09-18T05:06:09;31.92;;;28.70;;
17177;SDS011;8704;52.006;4.374;2023-09-18T05:08:37;33.10;;;29.75;;
17177;SDS011;8704;52.006;4.374;2023-09-18T05:11:06;36.30;;;32.50;;
17177;SDS011;8704;52.006;4.374;2023-09-18T05:13:34;31.00;;;27.90;;
17177;SDS011;8704;52.006;4.374;2023-09-18T05:16:02;33.88;;;30.27;;
17177;SDS011;8704;52.006;4.374;2023-09-18T05:18:31;31.50;;;28.27;;
17177;SDS011;8704;52.006;4.374;2023-09-18T05:21:00;33.65;;;30.00;;
17177;SDS011;8704;52.006;4.374;2023-09-18T05:23:31;31.45;;;28.38;;
17177;SDS011;8704;52.006;4.374;2023-09-18T05:25:59;28.88;;;25.90;;
17177;SDS011;8704;52.006;4.374;2023-09-18T05:28:27;38.53;;;29.70;;
17177;SDS011;8704;52.006;4.374;2023-09-18T05:30:55;33.03;;;29.58;;
17177;SDS011;8704;52.006;4.374;2023-09-18T05:33:23;29.30;;;26.40;;
17177;SDS011;8704;52.006;4.374;2023-09-18T05:35:51;32.53;;;29.10;;
17177;SDS011;8704;52.006;4.374;2023-09-18T05:38:21;26.25;;;23.80;;
17177;SDS011;8704;52.006;4.374;2023-09-18T05:40:52;29.20;;;26.38;;
17177;SDS011;8704;52.006;4.374;2023-09-18T05:43:21;29.67;;;26.52;;
17177;SDS011;8704;52.006;4.374;2023-09-18T05:45:48;28.77;;;25.92;;
17177;SDS011;8704;52.006;4.374;2023-09-18T05:48:17;31.05;;;28.00;;
17177;SDS011;8704;52.006;4.374;2023-09-18T05:50:45;26.70;;;24.00;;
17177;SDS011;8704;52.006;4.374;2023-09-18T05:53:14;32.45;;;29.25;;
17177;SDS011;8704;52.006;4.374;2023-09-18T05:55:43;33.95;;;30.40;;
17177;SDS011;8704;52.006;4.374;2023-09-18T05:58:11;31.13;;;27.83;;
17177;SDS011;8704;52.006;4.374;2023-09-18T06:00:40;34.25;;;30.20;;
17177;SDS011;8704;52.006;4.374;2023-09-18T06:03:08;36.35;;;32.42;;
17177;SDS011;8704;52.006;4.374;2023-09-18T06:05:39;35.72;;;31.85;;
17177;SDS011;8704;52.006;4.374;2023-09-18T06:08:07;35.47;;;31.35;;
17177;SDS011;8704;52.006;4.374;2023-09-18T06:10:35;39.53;;;33.05;;
17177;SDS011;8704;52.006;4.374;2023-09-18T06:13:05;40.03;;;34.67;;
17177;SDS011;8704;52.006;4.374;2023-09-18T06:15:33;34.17;;;30.48;;
17177;SDS011;8704;52.006;4.374;2023-09-18T06:18:01;34.17;;;30.67;;
17177;SDS011;8704;52.006;4.374;2023-09-18T06:20:30;36.22;;;32.42;;
17177;SDS011;8704;52.006;4.374;2023-09-18T06:22:59;33.78;;;30.30;;
17177;SDS011;8704;52.006;4.374;2023-09-18T06:25:27;33.75;;;30.30;;
17177;SDS011;8704;52.006;4.374;2023-09-18T06:27:55;32.28;;;28.85;;
17177;SDS011;8704;52.006;4.374;2023-09-18T06:30:24;29.63;;;26.15;;
17177;SDS011;8704;52.006;4.374;2023-09-18T06:32:53;28.90;;;25.23;;
17177;SDS011;8704;52.006;4.374;2023-09-18T06:35:21;27.83;;;24.98;;
17177;SDS011;8704;52.006;4.374;2023-09-18T06:37:50;23.95;;;21.55;;
17177;SDS011;8704;52.006;4.374;2023-09-18T06:40:20;21.85;;;19.35;;
17177;SDS011;8704;52.006;4.374;2023-09-18T06:42:48;20.10;;;18.02;;
17177;SDS011;8704;52.006;4.374;2023-09-18T06:45:16;24.05;;;18.80;;
17177;SDS011;8704;52.006;4.374;2023-09-18T06:47:46;22.52;;;18.70;;
17177;SDS011;8704;52.006;4.374;2023-09-18T06:50:14;18.98;;;17.15;;
17177;SDS011;8704;52.006;4.374;2023-09-18T06:52:45;21.65;;;16.90;;
17177;SDS011;8704;52.006;4.374;2023-09-18T06:55:13;17.85;;;15.35;;
17177;SDS011;8704;52.006;4.374;2023-09-18T06:57:43;18.33;;;13.73;;
17177;SDS011;8704;52.006;4.374;2023-09-18T07:00:11;17.17;;;12.75;;
17177;SDS011;8704;52.006;4.374;2023-09-18T07:02:46;11.75;;;10.07;;
17177;SDS011;8704;52.006;4.374;2023-09-18T07:05:16;14.65;;;10.32;;
17177;SDS011;8704;52.006;4.374;2023-09-18T07:07:44;13.93;;;10.52;;
17177;SDS011;8704;52.006;4.374;2023-09-18T07:10:12;12.35;;;10.23;;
17177;SDS011;8704;52.006;4.374;2023-09-18T07:12:40;13.40;;;10.13;;
17177;SDS011;8704;52.006;4.374;2023-09-18T07:15:09;15.48;;;9.77;;
17177;SDS011;8704;52.006;4.374;2023-09-18T07:17:37;12.05;;;9.90;;
17177;SDS011;8704;52.006;4.374;2023-09-18T07:20:07;13.25;;;10.20;;
17177;SDS011;8704;52.006;4.374;2023-09-18T07:22:45;12.63;;;9.55;;
17177;SDS011;8704;52.006;4.374;2023-09-18T07:25:14;11.18;;;9.75;;
17177;SDS011;8704;52.006;4.374;2023-09-18T07:27:43;10.98;;;8.20;;
17177;SDS011;8704;52.006;4.374;2023-09-18T07:30:11;11.25;;;8.77;;
17177;SDS011;8704;52.006;4.374;2023-09-18T07:32:42;11.63;;;9.02;;
17177;SDS011;8704;52.006;4.374;2023-09-18T07:35:12;12.00;;;7.90;;
17177;SDS011;8704;52.006;4.374;2023-09-18T07:37:41;11.77;;;8.13;;
17177;SDS011;8704;52.006;4.374;2023-09-18T07:40:11;12.38;;;8.95;;
17177;SDS011;8704;52.006;4.374;2023-09-18T07:42:39;14.27;;;9.13;;
17177;SDS011;8704;52.006;4.374;2023-09-18T07:45:10;13.77;;;9.30;;
17177;SDS011;8704;52.006;4.374;2023-09-18T07:47:38;16.27;;;9.77;;
17177;SDS011;8704;52.006;4.374;2023-09-18T07:50:06;11.38;;;7.90;;
17177;SDS011;8704;52.006;4.374;2023-09-18T07:52:36;9.68;;;7.43;;
17177;SDS011;8704;52.006;4.374;2023-09-18T07:55:05;10.88;;;8.50;;
17177;SDS011;8704;52.006;4.374;2023-09-18T07:57:34;10.23;;;7.20;;
17177;SDS011;8704;52.006;4.374;2023-09-18T08:00:04;8.95;;;6.30;;
17177;SDS011;8704;52.006;4.374;2023-09-18T08:02:39;8.48;;;6.47;;
17177;SDS011;8704;52.006;4.374;2023-09-18T08:05:09;8.25;;;5.47;;
17177;SDS011;8704;52.006;4.374;2023-09-18T08:07:38;8.40;;;5.93;;
17177;SDS011;8704;52.006;4.374;2023-09-18T08:10:07;9.70;;;5.32;;
17177;SDS011;8704;52.006;4.374;2023-09-18T08:12:36;7.93;;;5.60;;
17177;SDS011;8704;52.006;4.374;2023-09-18T08:15:04;10.00;;;5.60;;
17177;SDS011;8704;52.006;4.374;2023-09-18T08:17:34;10.32;;;6.15;;
17177;SDS011;8704;52.006;4.374;2023-09-18T08:20:03;6.80;;;5.15;;
17177;SDS011;8704;52.006;4.374;2023-09-18T08:22:40;8.10;;;6.03;;
17177;SDS011;8704;52.006;4.374;2023-09-18T08:25:08;8.43;;;6.00;;
17177;SDS011;8704;52.006;4.374;2023-09-18T08:27:37;10.05;;;5.97;;
17177;SDS011;8704;52.006;4.374;2023-09-18T08:30:09;6.88;;;5.53;;
17177;SDS011;8704;52.006;4.374;2023-09-18T08:32:37;13.25;;;6.30;;
17177;SDS011;8704;52.006;4.374;2023-09-18T08:35:06;7.78;;;5.22;;
17177;SDS011;8704;52.006;4.374;2023-09-18T08:37:35;8.68;;;5.60;;
17177;SDS011;8704;52.006;4.374;2023-09-18T08:40:05;10.10;;;5.60;;
17177;SDS011;8704;52.006;4.374;2023-09-18T08:42:38;10.55;;;5.72;;
17177;SDS011;8704;52.006;4.374;2023-09-18T08:45:08;10.45;;;5.38;;
17177;SDS011;8704;52.006;4.374;2023-09-18T08:47:37;8.68;;;5.15;;
17177;SDS011;8704;52.006;4.374;2023-09-18T08:50:08;10.90;;;5.60;;
17177;SDS011;8704;52.006;4.374;2023-09-18T08:52:37;8.25;;;4.97;;
17177;SDS011;8704;52.006;4.374;2023-09-18T08:55:08;8.15;;;4.95;;
17177;SDS011;8704;52.006;4.374;2023-09-18T08:57:38;7.50;;;5.15;;
17177;SDS011;8704;52.006;4.374;2023-09-18T09:00:09;10.02;;;5.70;;
17177;SDS011;8704;52.006;4.374;2023-09-18T09:02:43;6.78;;;5.22;;
17177;SDS011;8704;52.006;4.374;2023-09-18T09:05:11;9.85;;;5.72;;
17177;SDS011;8704;52.006;4.374;2023-09-18T09:07:39;8.00;;;5.45;;
17177;SDS011;8704;52.006;4.374;2023-09-18T09:10:09;8.02;;;5.13;;
17177;SDS011;8704;52.006;4.374;2023-09-18T09:12:47;7.10;;;4.90;;
17177;SDS011;8704;52.006;4.374;2023-09-18T09:15:20;6.78;;;4.65;;
17177;SDS011;8704;52.006;4.374;2023-09-18T09:17:48;7.95;;;5.32;;
17177;SDS011;8704;52.006;4.374;2023-09-18T09:20:20;8.65;;;5.53;;
17177;SDS011;8704;52.006;4.374;2023-09-18T09:22:48;6.32;;;4.57;;
17177;SDS011;8704;52.006;4.374;2023-09-18T09:25:25;5.47;;;4.25;;
17177;SDS011;8704;52.006;4.374;2023-09-18T09:27:53;5.00;;;4.40;;
17177;SDS011;8704;52.006;4.374;2023-09-18T09:30:23;7.68;;;4.82;;
17177;SDS011;8704;52.006;4.374;2023-09-18T09:32:53;8.32;;;4.38;;
17177;SDS011;8704;52.006;4.374;2023-09-18T09:35:23;6.57;;;4.70;;
17177;SDS011;8704;52.006;4.374;2023-09-18T09:37:54;11.23;;;5.13;;
17177;SDS011;8704;52.006;4.374;2023-09-18T09:40:26;6.65;;;4.70;;
17177;SDS011;8704;52.006;4.374;2023-09-18T09:42:56;7.00;;;4.90;;
17177;SDS011;8704;52.006;4.374;2023-09-18T09:45:28;6.88;;;4.82;;
17177;SDS011;8704;52.006;4.374;2023-09-18T09:47:58;7.18;;;4.82;;
17177;SDS011;8704;52.006;4.374;2023-09-18T09:50:28;7.97;;;5.00;;
17177;SDS011;8704;52.006;4.374;2023-09-18T09:52:58;9.07;;;4.45;;
17177;SDS011;8704;52.006;4.374;2023-09-18T09:55:29;8.68;;;4.90;;
17177;SDS011;8704;52.006;4.374;2023-09-18T09:57:58;6.82;;;4.78;;
17177;SDS011;8704;52.006;4.374;2023-09-18T10:00:28;8.10;;;5.22;;
17177;SDS011;8704;52.006;4.374;2023-09-18T10:03:00;12.60;;;5.63;;
17177;SDS011;8704;52.006;4.374;2023-09-18T10:05:30;7.95;;;5.18;;
17177;SDS011;8704;52.006;4.374;2023-09-18T10:08:06;8.95;;;5.22;;
17177;SDS011;8704;52.006;4.374;2023-09-18T10:10:37;6.78;;;5.13;;
17177;SDS011;8704;52.006;4.374;2023-09-18T10:13:09;7.10;;;5.30;;
17177;SDS011;8704;52.006;4.374;2023-09-18T10:15:39;6.90;;;5.20;;
17177;SDS011;8704;52.006;4.374;2023-09-18T10:18:22;7.90;;;5.70;;
17177;SDS011;8704;52.006;4.374;2023-09-18T10:20:56;7.22;;;5.20;;
17177;SDS011;8704;52.006;4.374;2023-09-18T10:23:32;9.80;;;5.38;;
17177;SDS011;8704;52.006;4.374;2023-09-18T10:26:12;7.35;;;5.28;;
17177;SDS011;8704;52.006;4.374;2023-09-18T10:28:46;7.72;;;5.53;;
17177;SDS011;8704;52.006;4.374;2023-09-18T10:31:19;8.35;;;4.25;;
17177;SDS011;8704;52.006;4.374;2023-09-18T10:33:48;6.22;;;4.13;;
17177;SDS011;8704;52.006;4.374;2023-09-18T10:36:17;8.13;;;4.13;;
17177;SDS011;8704;52.006;4.374;2023-09-18T10:38:46;8.00;;;4.20;;
17177;SDS011;8704;52.006;4.374;2023-09-18T10:41:20;9.13;;;4.43;;
17177;SDS011;8704;52.006;4.374;2023-09-18T10:43:51;6.68;;;3.97;;
17177;SDS011;8704;52.006;4.374;2023-09-18T10:46:23;7.10;;;4.47;;
17177;SDS011;8704;52.006;4.374;2023-09-18T10:48:52;5.20;;;3.53;;
17177;SDS011;8704;52.006;4.374;2023-09-18T10:51:22;6.32;;;3.95;;
17177;SDS011;8704;52.006;4.374;2023-09-18T10:53:51;6.60;;;3.72;;
17177;SDS011;8704;52.006;4.374;2023-09-18T10:56:21;6.88;;;3.22;;
17177;SDS011;8704;52.006;4.374;2023-09-18T10:58:55;12.85;;;3.97;;
17177;SDS011;8704;52.006;4.374;2023-09-18T11:01:25;6.03;;;3.33;;
17177;SDS011;8704;52.006;4.374;2023-09-18T11:03:57;6.80;;;3.50;;
17177;SDS011;8704;52.006;4.374;2023-09-18T11:06:26;7.05;;;3.28;;
17177;SDS011;8704;52.006;4.374;2023-09-18T11:08:59;6.18;;;3.47;;
17177;SDS011;8704;52.006;4.374;2023-09-18T11:11:32;10.70;;;3.47;;
17177;SDS011;8704;52.006;4.374;2023-09-18T11:14:02;6.72;;;3.45;;
17177;SDS011;8704;52.006;4.374;2023-09-18T11:16:37;6.85;;;3.42;;
17177;SDS011;8704;52.006;4.374;2023-09-18T11:19:10;8.07;;;3.40;;
17177;SDS011;8704;52.006;4.374;2023-09-18T11:21:40;5.45;;;2.92;;
17177;SDS011;8704;52.006;4.374;2023-09-18T11:24:14;5.28;;;3.08;;
17177;SDS011;8704;52.006;4.374;2023-09-18T11:26:46;6.07;;;3.50;;
17177;SDS011;8704;52.006;4.374;2023-09-18T11:29:16;7.43;;;3.78;;
17177;SDS011;8704;52.006;4.374;2023-09-18T11:31:50;6.38;;;3.17;;
17177;SDS011;8704;52.006;4.374;2023-09-18T11:34:21;6.90;;;3.53;;
17177;SDS011;8704;52.006;4.374;2023-09-18T11:36:50;7.55;;;3.25;;
17177;SDS011;8704;52.006;4.374;2023-09-18T11:39:34;6.70;;;3.55;;
17177;SDS011;8704;52.006;4.374;2023-09-18T11:42:09;6.15;;;3.60;;
17177;SDS011;8704;52.006;4.374;2023-09-18T11:44:38;5.20;;;3.53;;
17177;SDS011;8704;52.006;4.374;2023-09-18T11:47:13;8.18;;;4.30;;
17177;SDS011;8704;52.006;4.374;2023-09-18T11:49:47;7.90;;;3.70;;
17177;SDS011;8704;52.006;4.374;2023-09-18T11:52:21;5.78;;;3.67;;
17177;SDS011;8704;52.006;4.374;2023-09-18T11:54:51;10.18;;;3.55;;
17177;SDS011;8704;52.006;4.374;2023-09-18T11:57:22;6.78;;;3.70;;
17177;SDS011;8704;52.006;4.374;2023-09-18T11:59:50;7.32;;;3.90;;
17177;SDS011;8704;52.006;4.374;2023-09-18T12:02:24;7.53;;;3.63;;
17177;SDS011;8704;52.006;4.374;2023-09-18T12:04:54;6.35;;;4.00;;
17177;SDS011;8704;52.006;4.374;2023-09-18T12:07:23;5.55;;;3.60;;
17177;SDS011;8704;52.006;4.374;2023-09-18T12:09:51;7.80;;;3.75;;
17177;SDS011;8704;52.006;4.374;2023-09-18T12:12:22;7.35;;;4.25;;
17177;SDS011;8704;52.006;4.374;2023-09-18T12:14:52;5.65;;;4.00;;
17177;SDS011;8704;52.006;4.374;2023-09-18T12:17:20;10.93;;;4.35;;
17177;SDS011;8704;52.006;4.374;2023-09-18T12:19:52;6.97;;;4.55;;
17177;SDS011;8704;52.006;4.374;2023-09-18T12:22:24;10.10;;;5.00;;
17177;SDS011;8704;52.006;4.374;2023-09-18T12:24:54;7.80;;;4.93;;
17177;SDS011;8704;52.006;4.374;2023-09-18T12:27:42;7.85;;;4.68;;
17177;SDS011;8704;52.006;4.374;2023-09-18T12:30:10;6.22;;;4.15;;
17177;SDS011;8704;52.006;4.374;2023-09-18T12:32:42;6.60;;;4.53;;
17177;SDS011;8704;52.006;4.374;2023-09-18T12:35:13;8.95;;;4.78;;
17177;SDS011;8704;52.006;4.374;2023-09-18T12:37:41;8.83;;;4.50;;
17177;SDS011;8704;52.006;4.374;2023-09-18T12:40:20;6.20;;;3.97;;
17177;SDS011;8704;52.006;4.374;2023-09-18T12:42:53;6.55;;;3.58;;
17177;SDS011;8704;52.006;4.374;2023-09-18T12:45:23;7.20;;;4.10;;
17177;SDS011;8704;52.006;4.374;2023-09-18T12:47:53;8.20;;;4.25;;
17177;SDS011;8704;52.006;4.374;2023-09-18T12:50:23;6.47;;;4.03;;
17177;SDS011;8704;52.006;4.374;2023-09-18T12:52:52;6.88;;;3.85;;
17177;SDS011;8704;52.006;4.374;2023-09-18T12:55:21;6.53;;;4.15;;
17177;SDS011;8704;52.006;4.374;2023-09-18T12:57:50;6.88;;;3.70;;
17177;SDS011;8704;52.006;4.374;2023-09-18T13:00:20;7.15;;;3.72;;
17177;SDS011;8704;52.006;4.374;2023-09-18T13:02:50;5.82;;;3.60;;
17177;SDS011;8704;52.006;4.374;2023-09-18T13:07:52;6.30;;;4.00;;
17177;SDS011;8704;52.006;4.374;2023-09-18T13:10:22;6.00;;;3.25;;
17177;SDS011;8704;52.006;4.374;2023-09-18T13:12:54;6.10;;;3.72;;
17177;SDS011;8704;52.006;4.374;2023-09-18T13:15:27;6.20;;;3.53;;
17177;SDS011;8704;52.006;4.374;2023-09-18T13:17:57;7.47;;;3.42;;
17177;SDS011;8704;52.006;4.374;2023-09-18T13:20:28;6.40;;;3.67;;
17177;SDS011;8704;52.006;4.374;2023-09-18T13:22:58;7.40;;;3.30;;
17177;SDS011;8704;52.006;4.374;2023-09-18T13:28:00;5.95;;;3.47;;
17177;SDS011;8704;52.006;4.374;2023-09-18T13:30:31;6.82;;;3.50;;
17177;SDS011;8704;52.006;4.374;2023-09-18T13:33:01;8.65;;;3.40;;
17177;SDS011;8704;52.006;4.374;2023-09-18T13:35:32;7.50;;;4.00;;
17177;SDS011;8704;52.006;4.374;2023-09-18T13:38:01;5.85;;;3.40;;
17177;SDS011;8704;52.006;4.374;2023-09-18T13:40:32;6.95;;;3.75;;
17177;SDS011;8704;52.006;4.374;2023-09-18T13:43:00;7.53;;;3.60;;
17177;SDS011;8704;52.006;4.374;2023-09-18T13:45:31;6.47;;;3.47;;
17177;SDS011;8704;52.006;4.374;2023-09-18T13:48:01;5.77;;;3.03;;
17177;SDS011;8704;52.006;4.374;2023-09-18T13:50:29;6.05;;;3.78;;
17177;SDS011;8704;52.006;4.374;2023-09-18T13:52:59;8.23;;;4.10;;
17177;SDS011;8704;52.006;4.374;2023-09-18T13:55:29;6.60;;;3.85;;
17177;SDS011;8704;52.006;4.374;2023-09-18T13:57:57;6.32;;;3.38;;
17177;SDS011;8704;52.006;4.374;2023-09-18T14:00:25;6.75;;;3.45;;
17177;SDS011;8704;52.006;4.374;2023-09-18T14:02:54;6.43;;;3.20;;
17177;SDS011;8704;52.006;4.374;2023-09-18T14:05:23;9.75;;;4.13;;
17177;SDS011;8704;52.006;4.374;2023-09-18T14:07:53;7.97;;;3.75;;
17177;SDS011;8704;52.006;4.374;2023-09-18T14:10:26;7.78;;;3.75;;
17177;SDS011;8704;52.006;4.374;2023-09-18T14:12:54;12.35;;;3.95;;
17177;SDS011;8704;52.006;4.374;2023-09-18T14:15:23;9.02;;;5.22;;
17177;SDS011;8704;52.006;4.374;2023-09-18T14:17:52;7.70;;;4.45;;
17177;SDS011;8704;52.006;4.374;2023-09-18T14:20:22;7.90;;;3.65;;
17177;SDS011;8704;52.006;4.374;2023-09-18T14:22:50;6.82;;;3.40;;
17177;SDS011;8704;52.006;4.374;2023-09-18T14:25:18;7.72;;;3.15;;
17177;SDS011;8704;52.006;4.374;2023-09-18T14:27:48;7.25;;;2.92;;
17177;SDS011;8704;52.006;4.374;2023-09-18T14:30:16;9.30;;;2.95;;
17177;SDS011;8704;52.006;4.374;2023-09-18T14:32:45;6.78;;;2.78;;
17177;SDS011;8704;52.006;4.374;2023-09-18T14:35:14;6.90;;;2.67;;
17177;SDS011;8704;52.006;4.374;2023-09-18T14:37:44;8.23;;;3.10;;
17177;SDS011;8704;52.006;4.374;2023-09-18T14:40:12;9.05;;;2.80;;
17177;SDS011;8704;52.006;4.374;2023-09-18T14:42:41;6.05;;;2.55;;
17177;SDS011;8704;52.006;4.374;2023-09-18T14:45:09;7.63;;;2.70;;
17177;SDS011;8704;52.006;4.374;2023-09-18T14:47:39;8.98;;;3.25;;
17177;SDS011;8704;52.006;4.374;2023-09-18T14:50:07;6.40;;;2.90;;
17177;SDS011;8704;52.006;4.374;2023-09-18T14:52:35;8.55;;;3.22;;
17177;SDS011;8704;52.006;4.374;2023-09-18T14:55:05;9.55;;;3.38;;
17177;SDS011;8704;52.006;4.374;2023-09-18T14:57:35;11.98;;;3.53;;
17177;SDS011;8704;52.006;4.374;2023-09-18T15:00:04;12.32;;;2.92;;
17177;SDS011;8704;52.006;4.374;2023-09-18T15:02:33;9.02;;;2.90;;
17177;SDS011;8704;52.006;4.374;2023-09-18T15:05:02;10.48;;;3.03;;
17177;SDS011;8704;52.006;4.374;2023-09-18T15:07:33;10.50;;;2.78;;